Terminal Aerodrome Forecast
Issued by NWS

Home | Current Version | Previous Version | Text Only | Print | Product List | Glossary On
Versions: 1 2 3 4 5 6 7 8 9 10 11 12 13
086
FTUS43 KGRB 250525
TAFCWA
TAF
KCWA 250525Z 2506/2606 36006KT P6SM SCT060
      TEMPO 2508/2512 4SM BR SCT010
     FM251500 11008KT P6SM SCT025 BKN200
     FM252100 12010KT P6SM SCT019 BKN040
      TEMPO 2523/2603 3SM TSRA OVC019CB
     FM260300 11008KT 5SM BR SCT006 OVC012
      TEMPO 2603/2606 2SM -SHRA BR BKN006=

USA.gov is the U.S. government's official web portal to all federal, state and local government web resources and services.